createdAt,value
2023-03-01T00:01:32.381Z,102361.63
2023-03-01T00:04:00.384Z,102353.56
2023-03-01T00:06:28.813Z,102359.19
2023-03-01T00:08:56.693Z,102353.56
2023-03-01T00:11:26.420Z,102351.94
2023-03-01T00:13:56.216Z,102361.22
2023-03-01T00:16:27.379Z,102350.75
2023-03-01T00:18:58.716Z,102355.19
2023-03-01T00:21:26.848Z,102346.31
2023-03-01T00:23:54.367Z,102343.91
2023-03-01T00:26:23.738Z,102344.72
2023-03-01T00:28:51.440Z,102275.78
2023-03-01T00:31:24.821Z,102287.47
2023-03-01T00:33:58.228Z,102322.13
2023-03-01T00:36:31.640Z,102319.31
2023-03-01T00:38:59.156Z,102319.72
2023-03-01T00:41:27.869Z,102293.53
2023-03-01T00:43:55.722Z,102320.50
2023-03-01T00:46:25.743Z,102320.91
2023-03-01T00:48:53.103Z,102314.88
2023-03-01T00:51:23.956Z,102309.22
2023-03-01T00:53:52.842Z,102310.84
2023-03-01T00:56:20.283Z,102304.81
2023-03-01T00:58:47.778Z,102267.72
2023-03-01T01:01:21.088Z,102289.09
2023-03-01T01:03:54.797Z,102300.38
2023-03-01T01:06:27.330Z,102224.63
2023-03-01T01:08:56.209Z,102276.19
2023-03-01T01:11:27.586Z,102260.06
2023-03-01T01:13:55.556Z,102297.56
2023-03-01T01:16:24.633Z,102289.50
2023-03-01T01:18:52.170Z,102294.72
2023-03-01T01:21:22.454Z,102247.97
2023-03-01T01:23:50.137Z,102233.50
2023-03-01T01:26:21.464Z,102293.94
2023-03-01T01:28:50.664Z,102287.47
2023-03-01T01:31:19.038Z,102269.34
2023-03-01T01:33:46.906Z,102279.41
2023-03-01T01:36:14.166Z,102251.22
2023-03-01T01:38:43.514Z,102281.81
2023-03-01T01:41:12.814Z,102208.53
2023-03-01T01:43:46.703Z,102265.69
2023-03-01T01:46:32.358Z,102276.59
2023-03-01T01:49:23.911Z,102270.56
2023-03-01T01:51:55.305Z,102252.81
2023-03-01T01:54:28.821Z,102270.97
2023-03-01T01:57:05.930Z,102264.09
2023-03-01T01:59:34.801Z,102267.31
2023-03-01T02:02:04.544Z,102272.94
2023-03-01T02:04:33.218Z,102275.38
2023-03-01T02:07:14.264Z,102265.69
2023-03-01T02:09:46.355Z,102199.66
2023-03-01T02:12:16.275Z,102260.03
2023-03-01T02:14:43.672Z,102258.47
2023-03-01T02:17:13.231Z,102257.66
2023-03-01T02:20:11.964Z,102219.78
2023-03-01T02:22:40.078Z,102248.34
2023-03-01T02:25:45.385Z,102250.38
2023-03-01T02:28:16.499Z,102247.16
2023-03-01T02:31:04.789Z,102248.38
2023-03-01T02:33:34.609Z,102196.81
2023-03-01T02:36:07.576Z,102247.16
2023-03-01T02:38:34.770Z,102230.66
2023-03-01T02:41:04.803Z,102221.81
2023-03-01T02:43:34.308Z,102245.53
2023-03-01T02:46:08.734Z,102212.53
2023-03-01T02:48:47.912Z,102246.34
2023-03-01T02:51:56.920Z,102242.72
2023-03-01T02:54:34.574Z,102247.97
2023-03-01T02:57:02.169Z,102241.50
2023-03-01T02:59:40.407Z,102254.38
2023-03-01T03:02:21.438Z,102175.88
2023-03-01T03:04:48.687Z,102192.38
2023-03-01T03:07:16.114Z,102174.25
2023-03-01T03:09:43.814Z,102247.94
2023-03-01T03:12:11.734Z,102128.78
2023-03-01T03:14:38.891Z,102222.56
2023-03-01T03:17:07.705Z,102205.25
2023-03-01T03:19:34.947Z,102236.63
2023-03-01T03:22:03.042Z,102231.38
2023-03-01T03:24:38.878Z,102174.25
2023-03-01T03:27:07.230Z,102232.63
2023-03-01T03:29:35.076Z,102235.03
2023-03-01T03:32:02.144Z,102195.59
2023-03-01T03:34:29.612Z,102222.97
2023-03-01T03:37:00.534Z,102163.81
2023-03-01T03:39:28.379Z,102219.72
2023-03-01T03:41:55.661Z,102225.38
2023-03-01T03:44:22.944Z,102210.91
2023-03-01T03:46:50.210Z,102235.09
2023-03-01T03:49:17.295Z,102059.16
2023-03-01T03:51:46.695Z,102181.13
2023-03-01T03:54:14.064Z,102176.31
2023-03-01T03:56:41.360Z,102239.53
2023-03-01T03:59:08.547Z,102201.25
2023-03-01T04:01:35.825Z,102238.72
2023-03-01T04:04:05.326Z,102212.53
2023-03-01T04:06:32.989Z,102198.44
2023-03-01T04:09:03.535Z,102209.72
2023-03-01T04:11:30.778Z,102145.69
2023-03-01T04:14:00.112Z,102233.47
2023-03-01T04:16:27.564Z,102235.06
2023-03-01T04:18:54.661Z,102242.34
2023-03-01T04:21:22.245Z,102166.66
2023-03-01T04:23:49.497Z,102209.31
2023-03-01T04:26:16.789Z,102231.06
2023-03-01T04:28:46.417Z,102224.59
2023-03-01T04:31:17.661Z,102228.66
2023-03-01T04:33:49.726Z,102220.97
2023-03-01T04:36:18.636Z,102199.63
2023-03-01T04:38:49.596Z,102205.28
2023-03-01T04:41:19.184Z,102183.53
2023-03-01T04:43:46.806Z,102214.53
2023-03-01T04:46:16.227Z,102211.72
2023-03-01T04:48:46.562Z,102208.50
2023-03-01T04:51:16.916Z,102204.09
2023-03-01T04:53:45.505Z,102230.66
2023-03-01T04:56:14.994Z,102220.56
2023-03-01T04:58:42.517Z,102168.25
2023-03-01T05:01:21.232Z,102194.81
2023-03-01T05:03:51.689Z,102225.44
2023-03-01T05:06:21.224Z,102202.47
2023-03-01T05:08:48.784Z,102163.00
2023-03-01T05:11:16.008Z,102207.72
2023-03-01T05:13:43.578Z,102227.81
2023-03-01T05:16:14.101Z,102236.72
2023-03-01T05:18:42.020Z,102132.78
2023-03-01T05:21:17.354Z,102229.06
2023-03-01T05:23:45.865Z,102162.63
2023-03-01T05:26:27.490Z,102222.19
2023-03-01T05:29:00.472Z,102229.84
2023-03-01T05:31:28.503Z,102250.41
2023-03-01T05:33:55.985Z,102184.34
2023-03-01T05:36:23.345Z,102165.84
2023-03-01T05:38:50.521Z,102235.91
2023-03-01T05:41:18.215Z,102227.84
2023-03-01T05:43:46.240Z,102230.25
2023-03-01T05:46:14.615Z,102239.53
2023-03-01T05:48:41.868Z,102205.31
2023-03-01T05:51:09.164Z,102232.66
2023-03-01T05:53:36.543Z,102201.66
2023-03-01T05:56:07.196Z,102188.34
2023-03-01T05:58:34.452Z,102235.06
2023-03-01T06:01:01.645Z,102227.00
2023-03-01T06:03:28.868Z,102230.19
2023-03-01T06:05:59.902Z,102208.44
2023-03-01T06:08:28.442Z,102223.72
2023-03-01T06:10:55.963Z,102230.19
2023-03-01T06:13:24.613Z,102210.88
2023-03-01T06:15:52.095Z,102229.78
2023-03-01T06:18:19.546Z,102202.06
2023-03-01T06:20:53.397Z,102227.81
2023-03-01T06:23:20.697Z,102234.66
2023-03-01T06:25:47.729Z,102237.50
2023-03-01T06:28:15.067Z,102235.88
2023-03-01T06:30:42.345Z,102243.97
2023-03-01T06:33:09.576Z,102267.75
2023-03-01T06:35:36.810Z,102199.66
2023-03-01T06:38:04.974Z,102245.16
2023-03-01T06:40:32.914Z,102230.69
2023-03-01T06:43:00.606Z,102190.41
2023-03-01T06:45:28.016Z,102257.66
2023-03-01T06:48:03.789Z,102237.13
2023-03-01T06:50:31.201Z,102263.28
2023-03-01T06:52:58.827Z,102254.03
2023-03-01T06:55:26.356Z,102223.41
2023-03-01T06:57:58.184Z,102264.50
2023-03-01T07:00:26.448Z,102268.94
2023-03-01T07:02:54.244Z,102266.53
2023-03-01T07:05:21.853Z,102268.94
2023-03-01T07:07:49.107Z,102257.25
2023-03-01T07:10:16.410Z,102229.84
2023-03-01T07:12:43.755Z,102264.13
2023-03-01T07:15:11.661Z,102243.16
2023-03-01T07:17:38.821Z,102260.88
2023-03-01T07:20:06.563Z,102222.19
2023-03-01T07:22:34.016Z,102263.69
2023-03-01T07:25:01.139Z,102253.63
2023-03-01T07:27:28.390Z,102256.03
2023-03-01T07:29:55.544Z,102255.22
2023-03-01T07:32:22.730Z,102235.09
2023-03-01T07:34:49.886Z,102263.69
2023-03-01T07:37:17.070Z,102239.13
2023-03-01T07:39:44.348Z,102235.88
2023-03-01T07:42:11.543Z,102249.59
2023-03-01T07:44:38.930Z,102253.63
2023-03-01T07:47:06.199Z,102236.72
2023-03-01T07:49:33.495Z,102230.25
2023-03-01T07:52:00.804Z,102257.66
2023-03-01T07:54:28.008Z,102268.13
2023-03-01T07:56:55.919Z,102259.28
2023-03-01T07:59:24.750Z,102257.25
2023-03-01T08:01:51.963Z,102056.34
2023-03-01T08:04:19.148Z,102278.19
2023-03-01T08:06:46.408Z,102263.28
2023-03-01T08:09:13.635Z,102264.09
2023-03-01T08:11:40.878Z,102118.31
2023-03-01T08:14:08.233Z,102246.78
2023-03-01T08:16:36.613Z,102251.63
2023-03-01T08:19:47.031Z,102247.97
2023-03-01T08:22:14.163Z,102237.91
2023-03-01T08:24:41.249Z,102250.41
2023-03-01T08:27:08.715Z,102244.38
2023-03-01T08:29:36.100Z,102250.41
2023-03-01T08:32:03.358Z,102217.38
2023-03-01T08:34:32.319Z,102221.78
2023-03-01T08:36:59.615Z,102204.50
2023-03-01T08:39:26.782Z,102210.94
2023-03-01T08:41:54.773Z,102216.56
2023-03-01T08:44:22.347Z,102247.16
2023-03-01T08:46:51.113Z,102246.78
2023-03-01T08:49:19.948Z,102216.56
2023-03-01T08:51:48.542Z,102247.53
2023-03-01T08:54:21.833Z,102233.44
2023-03-01T08:56:49.829Z,102236.66
2023-03-01T08:59:18.574Z,102233.81
2023-03-01T09:01:45.893Z,102198.81
2023-03-01T09:04:13.997Z,102231.00
2023-03-01T09:06:41.147Z,102222.53
2023-03-01T09:09:16.199Z,102114.72
2023-03-01T09:11:45.025Z,102228.63
2023-03-01T09:14:13.191Z,102201.66
2023-03-01T09:16:41.088Z,102242.72
2023-03-01T09:19:08.417Z,102221.78
2023-03-01T09:21:40.547Z,102220.97
2023-03-01T09:24:14.764Z,102229.81
2023-03-01T09:26:42.019Z,102212.47
2023-03-01T09:29:11.051Z,102216.50
2023-03-01T09:31:38.989Z,102239.88
2023-03-01T09:34:06.919Z,102231.00
2023-03-01T09:36:34.864Z,102219.69
2023-03-01T09:52:47.018Z,102214.91
2023-03-01T09:55:26.979Z,102220.53
2023-03-01T09:58:05.613Z,102229.41
2023-03-01T10:00:43.056Z,102224.56
2023-03-01T10:03:18.062Z,102222.94
2023-03-01T10:05:58.074Z,102229.78
2023-03-01T10:08:42.720Z,102073.22
2023-03-01T10:11:25.577Z,102180.25
2023-03-01T10:14:23.888Z,102214.88
2023-03-01T10:20:28.130Z,102215.63
2023-03-01T10:22:56.600Z,102205.94
2023-03-01T10:25:29.744Z,102188.97
2023-03-01T10:28:16.336Z,102189.78
2023-03-01T10:30:45.085Z,102197.03
2023-03-01T10:33:21.119Z,102185.38
2023-03-01T10:35:49.621Z,102169.69
2023-03-01T10:38:18.183Z,102184.97
2023-03-01T10:40:53.253Z,102184.91
2023-03-01T10:43:20.990Z,102077.16
2023-03-01T10:45:49.118Z,102069.06
2023-03-01T10:48:27.260Z,102150.31
2023-03-01T10:51:00.597Z,102171.19
2023-03-01T10:53:33.022Z,102139.84
2023-03-01T10:56:03.235Z,102156.69
2023-03-01T10:58:31.540Z,102158.31
2023-03-01T11:01:03.859Z,102147.84
2023-03-01T11:03:39.707Z,102157.13
2023-03-01T11:06:22.798Z,102047.38
2023-03-01T11:08:51.604Z,102148.69
2023-03-01T11:11:36.202Z,102138.63
2023-03-01T11:14:25.098Z,102143.84
2023-03-01T11:17:06.070Z,102034.47
2023-03-01T11:19:34.248Z,102082.69
2023-03-01T11:22:13.190Z,102133.34
2023-03-01T11:24:49.360Z,102128.84
2023-03-01T11:27:44.393Z,102125.97
2023-03-01T11:30:25.421Z,102126.03
2023-03-01T11:33:23.052Z,102115.53
2023-03-01T11:36:08.696Z,102058.81
2023-03-01T11:38:39.381Z,102110.66
2023-03-01T11:41:17.810Z,102068.06
2023-03-01T11:43:50.654Z,102113.81
2023-03-01T11:46:26.840Z,102125.94
2023-03-01T11:49:22.706Z,102072.47
2023-03-01T11:52:14.653Z,102123.91
2023-03-01T11:55:06.753Z,102124.69
2023-03-01T11:57:42.885Z,102121.84
2023-03-01T12:00:47.924Z,102120.59
2023-03-01T12:03:30.280Z,102106.47
2023-03-01T12:06:13.544Z,102097.63
2023-03-01T12:08:46.639Z,102091.94
2023-03-01T12:11:36.552Z,102039.78
2023-03-01T12:14:41.441Z,102102.44
2023-03-01T12:17:30.139Z,102100.84
2023-03-01T12:20:30.215Z,102094.41
2023-03-01T12:23:30.488Z,102089.56
2023-03-01T12:26:24.053Z,102086.81
2023-03-01T12:29:18.320Z,101933.72
2023-03-01T12:31:57.111Z,102076.22
2023-03-01T12:35:07.223Z,102068.53
2023-03-01T12:37:44.417Z,101940.03
2023-03-01T12:40:53.683Z,102070.56
2023-03-01T12:43:37.625Z,102071.69
2023-03-01T12:46:32.520Z,102054.47
2023-03-01T12:49:16.668Z,101931.34
2023-03-01T12:52:20.118Z,101959.69
2023-03-01T12:55:02.500Z,101848.22
2023-03-01T12:57:55.385Z,101881.47
2023-03-01T13:00:43.710Z,102033.25
2023-03-01T13:08:07.362Z,102059.22
2023-03-01T13:10:50.735Z,102051.56
2023-03-01T13:13:26.474Z,102054.34
2023-03-01T13:15:54.847Z,102065.22
2023-03-01T13:18:26.474Z,102052.31
2023-03-01T13:20:58.362Z,102047.94
2023-03-01T13:23:36.026Z,102041.91
2023-03-01T13:26:12.540Z,102043.13
2023-03-01T13:28:45.727Z,102040.72
2023-03-01T13:31:19.765Z,102039.53
2023-03-01T13:33:50.568Z,102036.28
2023-03-01T13:36:30.795Z,102033.81
2023-03-01T13:43:59.117Z,102023.44
2023-03-01T13:46:26.782Z,101837.88
2023-03-01T13:48:57.996Z,101999.94
2023-03-01T13:51:28.700Z,101975.91
2023-03-01T13:53:57.806Z,102023.31
2023-03-01T13:56:38.740Z,102023.44
2023-03-01T13:59:15.130Z,102003.25
2023-03-01T14:01:43.831Z,102020.13
2023-03-01T14:04:38.661Z,101987.09
2023-03-01T14:07:22.969Z,102016.09
2023-03-01T14:09:55.257Z,101988.72
2023-03-01T14:12:47.622Z,102009.66
2023-03-01T14:15:17.701Z,102010.88
2023-03-01T14:17:59.721Z,102001.56
2023-03-01T14:20:40.573Z,102004.78
2023-03-01T14:23:14.228Z,101965.38
2023-03-01T14:25:52.537Z,101989.03
2023-03-01T14:28:38.488Z,101975.78
2023-03-01T14:31:53.050Z,102004.75
2023-03-01T14:34:25.709Z,102003.50
2023-03-01T14:36:52.983Z,101996.28
2023-03-01T14:39:25.288Z,102004.66
2023-03-01T14:41:52.714Z,101913.50
2023-03-01T14:44:25.641Z,101962.06
2023-03-01T14:46:56.288Z,102005.56
2023-03-01T14:49:28.371Z,102005.56
2023-03-01T14:52:02.996Z,101955.66
2023-03-01T14:54:44.062Z,101983.00
2023-03-01T14:57:17.427Z,101997.09
2023-03-01T14:59:45.362Z,101994.38
2023-03-01T15:02:22.699Z,101957.31
2023-03-01T15:05:07.355Z,101967.72
2023-03-01T15:07:41.182Z,101914.28
2023-03-01T15:10:18.729Z,101966.69
2023-03-01T15:12:45.899Z,101973.19
2023-03-01T15:15:37.972Z,101975.97
2023-03-01T15:18:28.725Z,101973.56
2023-03-01T15:20:57.430Z,101980.81
2023-03-01T15:23:30.727Z,101942.63
2023-03-01T15:25:59.053Z,101952.25
2023-03-01T15:28:28.025Z,101960.22
2023-03-01T15:31:13.563Z,101961.81
2023-03-01T15:33:48.239Z,101961.06
2023-03-01T15:36:40.115Z,101964.56
2023-03-01T15:39:38.695Z,101964.09
2023-03-01T15:42:14.678Z,101956.97
2023-03-01T15:44:44.373Z,101944.84
2023-03-01T15:47:30.733Z,101912.38
2023-03-01T15:49:59.442Z,101946.63
2023-03-01T15:52:37.840Z,101963.28
2023-03-01T15:55:15.700Z,101863.16
2023-03-01T15:57:42.931Z,101964.94
2023-03-01T16:00:12.603Z,101976.28
2023-03-01T16:02:40.649Z,101945.38
2023-03-01T16:05:17.586Z,101898.41
2023-03-01T16:07:46.973Z,101981.59
2023-03-01T16:10:20.911Z,101875.13
2023-03-01T16:13:23.854Z,101726.81
2023-03-01T16:16:12.370Z,101878.72
2023-03-01T16:19:22.832Z,101968.34
2023-03-01T16:22:30.188Z,101827.28
2023-03-01T17:21:18.204Z,101962.00
2023-03-01T17:24:18.564Z,101792.63
2023-03-01T17:26:49.873Z,101954.38
2023-03-01T17:29:19.859Z,101956.31
2023-03-01T17:31:50.690Z,101948.69
2023-03-01T17:34:18.704Z,101963.78
2023-03-01T17:36:47.002Z,101881.50
2023-03-01T17:39:14.130Z,101881.31
2023-03-01T17:41:41.407Z,101950.75
2023-03-01T17:44:08.655Z,101967.91
2023-03-01T17:46:36.118Z,101954.19
2023-03-01T17:49:04.143Z,101973.84
2023-03-01T17:51:31.524Z,101934.81
2023-03-01T17:53:58.839Z,101928.41
2023-03-01T17:56:26.332Z,101925.88
2023-03-01T17:58:53.417Z,101960.41
2023-03-01T18:01:23.537Z,101972.81
2023-03-01T18:03:52.709Z,101966.78
2023-03-01T18:06:24.869Z,101897.81
2023-03-01T18:08:55.080Z,101969.66
2023-03-01T18:11:24.996Z,101979.28
2023-03-01T18:13:54.448Z,101961.31
2023-03-01T18:16:23.167Z,101975.13
2023-03-01T18:18:55.482Z,101976.31
2023-03-01T18:21:23.815Z,101946.63
2023-03-01T18:23:51.132Z,101967.72
2023-03-01T18:26:22.273Z,101815.78
2023-03-01T18:28:51.834Z,101878.34
2023-03-01T18:31:24.437Z,101974.56
2023-03-01T18:33:55.161Z,101981.88
2023-03-01T18:36:34.137Z,101991.53
2023-03-01T18:39:03.955Z,101985.50
2023-03-01T18:41:33.058Z,101979.88
2023-03-01T18:44:03.261Z,101888.91
2023-03-01T18:46:30.956Z,101827.28
2023-03-01T18:48:58.367Z,101930.75
2023-03-01T18:51:27.729Z,101997.72
2023-03-01T18:53:55.616Z,102005.34
2023-03-01T18:56:24.241Z,101912.75
2023-03-01T18:58:51.569Z,102010.56
2023-03-01T19:01:24.395Z,101947.53
2023-03-01T19:03:53.126Z,102009.69
2023-03-01T19:06:20.930Z,102014.16
2023-03-01T19:08:49.902Z,102016.50
2023-03-01T19:11:17.928Z,102021.78
2023-03-01T19:13:46.897Z,101922.78
2023-03-01T19:16:20.735Z,102025.84
2023-03-01T19:18:54.419Z,101986.94
2023-03-01T19:21:25.362Z,102025.38
2023-03-01T19:23:53.212Z,101999.72
2023-03-01T19:26:23.305Z,102003.72
2023-03-01T19:28:51.222Z,101990.13
2023-03-01T19:31:21.287Z,102033.41
2023-03-01T19:33:48.445Z,102009.31
2023-03-01T19:36:18.948Z,102003.38
2023-03-01T19:38:46.209Z,101954.88
2023-03-01T19:41:16.933Z,102023.69
2023-03-01T19:43:46.481Z,102012.47
2023-03-01T19:46:15.467Z,101921.84
2023-03-01T19:48:44.778Z,101884.84
2023-03-01T19:51:14.779Z,102014.06
2023-03-01T19:53:45.576Z,101993.97
2023-03-01T19:56:12.873Z,102028.13
2023-03-01T19:58:40.446Z,102023.00
2023-03-01T20:01:16.189Z,101996.56
2023-03-01T20:03:43.978Z,102025.84
2023-03-01T20:06:16.054Z,101925.22
2023-03-01T20:08:44.711Z,102020.63
2023-03-01T20:11:14.445Z,101862.19
2023-03-01T20:13:41.595Z,102036.00
2023-03-01T20:16:09.901Z,101923.94
2023-03-01T20:18:37.089Z,102036.75
2023-03-01T20:21:09.220Z,102021.47
2023-03-01T20:23:45.328Z,102015.66
2023-03-01T20:26:16.648Z,102046.44
2023-03-01T20:28:43.962Z,102044.09
2023-03-01T20:31:13.000Z,102008.38
2023-03-01T20:33:40.245Z,102048.94
2023-03-01T20:36:08.781Z,102054.53
2023-03-01T20:38:37.266Z,102035.28
2023-03-01T20:41:13.116Z,101912.09
2023-03-01T20:43:43.424Z,102065.06
2023-03-01T20:46:13.363Z,102027.25
2023-03-01T20:48:43.251Z,102055.31
2023-03-01T20:51:12.299Z,102019.94
2023-03-01T20:53:40.417Z,102045.53
2023-03-01T20:56:12.951Z,102050.03
2023-03-01T20:58:41.436Z,102014.66
2023-03-01T21:01:10.587Z,102043.19
2023-03-01T21:03:38.139Z,102033.56
2023-03-01T21:06:06.504Z,102044.78
2023-03-01T21:08:35.162Z,102047.25
2023-03-01T21:11:03.838Z,102014.63
2023-03-01T21:13:32.970Z,102042.75
2023-03-01T21:16:04.713Z,102043.97
2023-03-01T21:18:33.058Z,102009.84
2023-03-01T21:21:06.513Z,102038.34
2023-03-01T21:23:34.624Z,102043.22
2023-03-01T21:26:01.753Z,102044.91
2023-03-01T21:28:32.428Z,102051.38
2023-03-01T21:31:18.201Z,102021.59
2023-03-01T21:33:48.161Z,102039.97
2023-03-01T21:36:16.909Z,102041.66
2023-03-01T21:38:47.181Z,102034.41
2023-03-01T21:41:17.323Z,102040.78
2023-03-01T21:43:46.810Z,102018.91
2023-03-01T21:46:16.372Z,102035.22
2023-03-01T21:48:45.589Z,102041.69
2023-03-01T21:51:15.437Z,102030.47
2023-03-01T21:53:43.452Z,102031.69
2023-03-01T21:56:15.763Z,102028.03
2023-03-01T21:58:42.846Z,102036.00
2023-03-01T22:01:16.392Z,102031.19
2023-03-01T22:03:47.397Z,102035.66
2023-03-01T22:06:24.652Z,102013.66
2023-03-01T22:08:55.343Z,102027.69
2023-03-01T22:11:23.274Z,102037.66
2023-03-01T22:13:52.561Z,102025.59
2023-03-01T22:16:21.294Z,102026.78
2023-03-01T22:18:49.022Z,101959.84
2023-03-01T22:21:16.850Z,102021.53
2023-03-01T22:23:44.601Z,102028.72
2023-03-01T22:26:24.515Z,101943.19
2023-03-01T22:28:52.905Z,102014.25
2023-03-01T22:31:20.542Z,101930.44
2023-03-01T22:33:47.867Z,101959.72
2023-03-01T22:36:15.085Z,101993.16
2023-03-01T22:38:42.341Z,101989.16
2023-03-01T22:41:09.661Z,102034.50
2023-03-01T22:43:36.903Z,102034.06
2023-03-01T22:46:16.536Z,102021.88
2023-03-01T22:48:43.935Z,102038.41
2023-03-01T22:51:26.225Z,102021.91
2023-03-01T22:53:53.988Z,101991.78
2023-03-01T22:56:29.137Z,102022.25
2023-03-01T22:58:59.218Z,102014.22
2023-03-01T23:01:27.390Z,102020.63
2023-03-01T23:03:54.580Z,101948.41
2023-03-01T23:06:23.387Z,102023.78
2023-03-01T23:08:56.341Z,101959.25
2023-03-01T23:11:25.481Z,101936.81
2023-03-01T23:13:53.900Z,102020.28
2023-03-01T23:16:26.355Z,102021.47
2023-03-01T23:18:55.881Z,102030.34
2023-03-01T23:21:23.231Z,102027.19
2023-03-01T23:23:51.144Z,102006.75
2023-03-01T23:26:18.875Z,101991.94
2023-03-01T23:28:46.058Z,102016.69
2023-03-01T23:31:15.070Z,102023.97
2023-03-01T23:33:45.194Z,102020.72
2023-03-01T23:36:45.217Z,102023.59
2023-03-01T23:39:13.679Z,102021.22
2023-03-01T23:41:40.902Z,101966.19
2023-03-01T23:44:08.100Z,101995.88
2023-03-01T23:46:37.528Z,102015.22
2023-03-01T23:49:04.873Z,102014.34
2023-03-01T23:51:32.215Z,102000.34
2023-03-01T23:54:05.521Z,102014.34
2023-03-01T23:56:37.779Z,101939.97
2023-03-01T23:59:14.724Z,102003.00
